Terminal Aerodrome Forecast
Issued by NWS Sterling, VA

Current Version | Previous Version | Text Only | Print | Product List | Glossary Off
Versions: 1 2 3 4 5 6 7 8 9 10 11 12 13 14 15 16 17 18 19 20 21 22 23 24

000
FTUS41 KLWX 122100 AAA
TAFIAD
TAF AMD
KIAD 122119Z 1221/1324 35007KT P6SM FEW150 BKN250
     FM130200 VRB03KT P6SM BKN250
     FM130900 04003KT P6SM OVC050
     FM131200 04004KT P6SM -SHRA OVC025
     FM131800 32004KT P6SM OVC025
     FM132100 34008KT P6SM OVC050=

USA.gov is the U.S. government's official web portal to all federal, state and local government web resources and services.